Jackson, Mississippi
Current Conditions -  °F | °C
As of 11:53 AM on Saturday 25 Oct 2014 (Local Time) from KHKS Reporting Station
Clear Clear  
Wind Chill: 74°   Ceiling: Unl
Heat Index: 74°   Visibility: 10mi
Dew Point: 57°   Wind: 7mph
Humidity: 55%   Direction: 320°NW
Pressure: 30.17"   Gusts: NA
Location:  32.3°N, 90.18°W
Report Text: KHKS 251653Z 32006KT 10SM CLR 23/14 A3017 RMK AO2 SLP209 T02330139
Loading
Personal Weather Stations






























Interactive Weather Map
Tropical Storm Tracking
New forecast layout! Learn more

10-Day Weather Forecast

Advertisements
Track Severe Weather on mobile